EGPC - Wick
Distance from station: E 5mi, 14km
Updated: 07/18/2018 3:20pm
Partly Cloudy
Partly Cloudy
 Wind from SE
Wind: SE 5 mph , 7 km/h
Temperature: 54°F , 12°C
Dew Point: 50°F , 10°C
Humidity: 88%
Barometer: 30.09 inHg , 1019 hPa
Clouds: Partly Cloudy
Visibility: 6 miles , 10 km
Cloud details: Partly Cloudy 3300 ft
2018/07/18 22:20 EGPC 182220Z AUTO 14004KT 9999 SCT033/// 12/10 Q1019